sensor_id;sensor_type;location;lat;lon;timestamp;P1;durP1;ratioP1;P2;durP2;ratioP2
21754;SDS011;11039;50.028;19.938;2023-10-09T00:00:50;5.20;;;3.60;;
21754;SDS011;11039;50.028;19.938;2023-10-09T00:03:18;5.88;;;4.30;;
21754;SDS011;11039;50.028;19.938;2023-10-09T00:05:49;5.18;;;3.78;;
21754;SDS011;11039;50.028;19.938;2023-10-09T00:08:18;5.97;;;3.90;;
21754;SDS011;11039;50.028;19.938;2023-10-09T00:10:50;5.80;;;3.97;;
21754;SDS011;11039;50.028;19.938;2023-10-09T00:13:22;4.80;;;3.42;;
21754;SDS011;11039;50.028;19.938;2023-10-09T00:16:03;5.35;;;3.90;;
21754;SDS011;11039;50.028;19.938;2023-10-09T00:18:38;6.15;;;3.95;;
21754;SDS011;11039;50.028;19.938;2023-10-09T00:21:04;5.22;;;3.70;;
21754;SDS011;11039;50.028;19.938;2023-10-09T00:23:37;5.00;;;3.35;;
21754;SDS011;11039;50.028;19.938;2023-10-09T00:26:04;5.28;;;3.72;;
21754;SDS011;11039;50.028;19.938;2023-10-09T00:28:37;5.78;;;3.30;;
21754;SDS011;11039;50.028;19.938;2023-10-09T00:31:08;5.85;;;4.13;;
21754;SDS011;11039;50.028;19.938;2023-10-09T00:33:40;4.93;;;3.60;;
21754;SDS011;11039;50.028;19.938;2023-10-09T00:36:06;5.97;;;4.15;;
21754;SDS011;11039;50.028;19.938;2023-10-09T00:38:39;5.63;;;4.20;;
21754;SDS011;11039;50.028;19.938;2023-10-09T00:41:09;5.05;;;3.63;;
21754;SDS011;11039;50.028;19.938;2023-10-09T00:43:36;5.82;;;4.10;;
21754;SDS011;11039;50.028;19.938;2023-10-09T00:46:02;5.70;;;3.63;;
21754;SDS011;11039;50.028;19.938;2023-10-09T00:48:36;5.35;;;3.72;;
21754;SDS011;11039;50.028;19.938;2023-10-09T00:51:05;5.68;;;4.15;;
21754;SDS011;11039;50.028;19.938;2023-10-09T00:53:42;6.40;;;3.80;;
21754;SDS011;11039;50.028;19.938;2023-10-09T00:56:08;6.10;;;3.90;;
21754;SDS011;11039;50.028;19.938;2023-10-09T00:59:03;5.18;;;3.88;;
21754;SDS011;11039;50.028;19.938;2023-10-09T01:01:40;6.18;;;3.90;;
21754;SDS011;11039;50.028;19.938;2023-10-09T01:04:10;5.43;;;3.97;;
21754;SDS011;11039;50.028;19.938;2023-10-09T01:06:43;5.15;;;3.60;;
21754;SDS011;11039;50.028;19.938;2023-10-09T01:09:13;5.40;;;3.67;;
21754;SDS011;11039;50.028;19.938;2023-10-09T01:11:40;5.63;;;3.40;;
21754;SDS011;11039;50.028;19.938;2023-10-09T01:14:13;4.45;;;3.67;;
21754;SDS011;11039;50.028;19.938;2023-10-09T01:16:40;5.22;;;3.67;;
21754;SDS011;11039;50.028;19.938;2023-10-09T01:19:07;5.22;;;3.20;;
21754;SDS011;11039;50.028;19.938;2023-10-09T01:21:46;5.20;;;3.80;;
21754;SDS011;11039;50.028;19.938;2023-10-09T01:24:13;6.68;;;3.28;;
21754;SDS011;11039;50.028;19.938;2023-10-09T01:26:41;6.05;;;4.18;;
21754;SDS011;11039;50.028;19.938;2023-10-09T01:29:21;5.78;;;3.70;;
21754;SDS011;11039;50.028;19.938;2023-10-09T01:31:48;5.07;;;3.65;;
21754;SDS011;11039;50.028;19.938;2023-10-09T01:34:20;4.68;;;3.22;;
21754;SDS011;11039;50.028;19.938;2023-10-09T01:36:52;5.70;;;3.70;;
21754;SDS011;11039;50.028;19.938;2023-10-09T01:39:25;5.10;;;3.40;;
21754;SDS011;11039;50.028;19.938;2023-10-09T01:42:05;5.07;;;3.30;;
21754;SDS011;11039;50.028;19.938;2023-10-09T01:44:32;5.57;;;3.80;;
21754;SDS011;11039;50.028;19.938;2023-10-09T01:47:08;5.57;;;4.22;;
21754;SDS011;11039;50.028;19.938;2023-10-09T01:49:39;8.23;;;4.03;;
21754;SDS011;11039;50.028;19.938;2023-10-09T01:52:08;4.35;;;3.13;;
21754;SDS011;11039;50.028;19.938;2023-10-09T01:54:35;4.45;;;3.60;;
21754;SDS011;11039;50.028;19.938;2023-10-09T01:57:05;4.95;;;3.22;;
21754;SDS011;11039;50.028;19.938;2023-10-09T01:59:36;4.63;;;3.28;;
21754;SDS011;11039;50.028;19.938;2023-10-09T02:02:10;9.02;;;3.80;;
21754;SDS011;11039;50.028;19.938;2023-10-09T02:05:01;5.15;;;3.58;;
21754;SDS011;11039;50.028;19.938;2023-10-09T02:07:30;4.38;;;3.58;;
21754;SDS011;11039;50.028;19.938;2023-10-09T02:10:06;4.70;;;3.20;;
21754;SDS011;11039;50.028;19.938;2023-10-09T02:12:37;4.80;;;3.50;;
21754;SDS011;11039;50.028;19.938;2023-10-09T02:15:03;4.72;;;3.08;;
21754;SDS011;11039;50.028;19.938;2023-10-09T02:17:40;5.47;;;3.50;;
21754;SDS011;11039;50.028;19.938;2023-10-09T02:20:17;5.03;;;3.20;;
21754;SDS011;11039;50.028;19.938;2023-10-09T02:22:53;4.72;;;3.25;;
21754;SDS011;11039;50.028;19.938;2023-10-09T02:25:19;6.05;;;3.60;;
21754;SDS011;11039;50.028;19.938;2023-10-09T02:27:47;4.82;;;3.58;;
21754;SDS011;11039;50.028;19.938;2023-10-09T02:30:24;4.03;;;3.10;;
21754;SDS011;11039;50.028;19.938;2023-10-09T02:32:54;5.18;;;3.53;;
21754;SDS011;11039;50.028;19.938;2023-10-09T02:35:32;4.93;;;3.60;;
21754;SDS011;11039;50.028;19.938;2023-10-09T02:38:03;4.47;;;3.35;;
21754;SDS011;11039;50.028;19.938;2023-10-09T02:40:32;5.30;;;3.75;;
21754;SDS011;11039;50.028;19.938;2023-10-09T02:43:05;5.13;;;3.58;;
21754;SDS011;11039;50.028;19.938;2023-10-09T02:45:31;4.60;;;3.20;;
21754;SDS011;11039;50.028;19.938;2023-10-09T02:48:02;4.75;;;3.25;;
21754;SDS011;11039;50.028;19.938;2023-10-09T02:50:35;4.78;;;3.40;;
21754;SDS011;11039;50.028;19.938;2023-10-09T02:53:03;4.38;;;3.33;;
21754;SDS011;11039;50.028;19.938;2023-10-09T02:55:35;4.85;;;3.50;;
21754;SDS011;11039;50.028;19.938;2023-10-09T02:58:03;4.70;;;3.28;;
21754;SDS011;11039;50.028;19.938;2023-10-09T03:00:46;4.53;;;2.97;;
21754;SDS011;11039;50.028;19.938;2023-10-09T03:03:13;4.53;;;3.15;;
21754;SDS011;11039;50.028;19.938;2023-10-09T03:05:44;4.80;;;3.42;;
21754;SDS011;11039;50.028;19.938;2023-10-09T03:08:10;5.25;;;3.92;;
21754;SDS011;11039;50.028;19.938;2023-10-09T03:10:38;4.30;;;3.00;;
21754;SDS011;11039;50.028;19.938;2023-10-09T03:13:05;4.32;;;3.30;;
21754;SDS011;11039;50.028;19.938;2023-10-09T03:15:31;3.83;;;3.17;;
21754;SDS011;11039;50.028;19.938;2023-10-09T03:18:01;4.22;;;2.92;;
21754;SDS011;11039;50.028;19.938;2023-10-09T03:20:27;5.03;;;3.42;;
21754;SDS011;11039;50.028;19.938;2023-10-09T03:22:55;4.72;;;3.28;;
21754;SDS011;11039;50.028;19.938;2023-10-09T03:25:22;4.22;;;2.92;;
21754;SDS011;11039;50.028;19.938;2023-10-09T03:27:52;4.90;;;3.08;;
21754;SDS011;11039;50.028;19.938;2023-10-09T03:30:21;4.53;;;3.20;;
21754;SDS011;11039;50.028;19.938;2023-10-09T03:32:47;4.50;;;3.40;;
21754;SDS011;11039;50.028;19.938;2023-10-09T03:35:16;4.60;;;3.00;;
21754;SDS011;11039;50.028;19.938;2023-10-09T03:37:48;4.93;;;3.40;;
21754;SDS011;11039;50.028;19.938;2023-10-09T03:40:14;5.00;;;3.05;;
21754;SDS011;11039;50.028;19.938;2023-10-09T03:42:43;4.72;;;3.33;;
21754;SDS011;11039;50.028;19.938;2023-10-09T03:45:09;4.47;;;3.03;;
21754;SDS011;11039;50.028;19.938;2023-10-09T03:47:43;4.00;;;3.20;;
21754;SDS011;11039;50.028;19.938;2023-10-09T03:50:13;4.03;;;2.80;;
21754;SDS011;11039;50.028;19.938;2023-10-09T03:52:52;4.07;;;2.90;;
21754;SDS011;11039;50.028;19.938;2023-10-09T03:55:20;3.92;;;3.10;;
21754;SDS011;11039;50.028;19.938;2023-10-09T03:57:47;4.25;;;2.90;;
21754;SDS011;11039;50.028;19.938;2023-10-09T04:00:13;4.95;;;3.45;;
21754;SDS011;11039;50.028;19.938;2023-10-09T04:02:41;4.30;;;3.15;;
21754;SDS011;11039;50.028;19.938;2023-10-09T04:05:07;4.03;;;3.10;;
21754;SDS011;11039;50.028;19.938;2023-10-09T04:07:33;4.20;;;2.92;;
21754;SDS011;11039;50.028;19.938;2023-10-09T04:10:00;4.47;;;3.13;;
21754;SDS011;11039;50.028;19.938;2023-10-09T04:12:48;4.45;;;2.88;;
21754;SDS011;11039;50.028;19.938;2023-10-09T04:15:18;4.82;;;3.30;;
21754;SDS011;11039;50.028;19.938;2023-10-09T04:17:48;4.88;;;3.30;;
21754;SDS011;11039;50.028;19.938;2023-10-09T04:20:16;6.20;;;3.20;;
21754;SDS011;11039;50.028;19.938;2023-10-09T04:22:43;4.07;;;3.22;;
21754;SDS011;11039;50.028;19.938;2023-10-09T04:25:27;3.40;;;2.70;;
21754;SDS011;11039;50.028;19.938;2023-10-09T04:27:58;3.83;;;2.92;;
21754;SDS011;11039;50.028;19.938;2023-10-09T04:30:45;3.38;;;2.55;;
21754;SDS011;11039;50.028;19.938;2023-10-09T04:33:12;3.17;;;2.47;;
21754;SDS011;11039;50.028;19.938;2023-10-09T04:35:54;6.20;;;3.25;;
21754;SDS011;11039;50.028;19.938;2023-10-09T04:38:39;4.30;;;3.00;;
21754;SDS011;11039;50.028;19.938;2023-10-09T04:41:18;4.22;;;3.20;;
21754;SDS011;11039;50.028;19.938;2023-10-09T04:43:53;5.25;;;2.90;;
21754;SDS011;11039;50.028;19.938;2023-10-09T04:46:29;4.22;;;2.75;;
21754;SDS011;11039;50.028;19.938;2023-10-09T04:49:09;3.67;;;2.80;;
21754;SDS011;11039;50.028;19.938;2023-10-09T04:51:55;4.28;;;2.95;;
21754;SDS011;11039;50.028;19.938;2023-10-09T04:54:31;3.40;;;2.70;;
21754;SDS011;11039;50.028;19.938;2023-10-09T04:57:26;6.47;;;2.83;;
21754;SDS011;11039;50.028;19.938;2023-10-09T04:59:52;3.45;;;2.70;;
21754;SDS011;11039;50.028;19.938;2023-10-09T05:02:23;3.60;;;2.50;;
21754;SDS011;11039;50.028;19.938;2023-10-09T05:04:49;4.13;;;2.70;;
21754;SDS011;11039;50.028;19.938;2023-10-09T05:07:38;4.13;;;2.92;;
21754;SDS011;11039;50.028;19.938;2023-10-09T05:10:20;5.85;;;2.80;;
21754;SDS011;11039;50.028;19.938;2023-10-09T05:12:50;4.95;;;2.90;;
21754;SDS011;11039;50.028;19.938;2023-10-09T05:15:23;14.60;;;4.70;;
21754;SDS011;11039;50.028;19.938;2023-10-09T05:17:54;22.65;;;6.32;;
21754;SDS011;11039;50.028;19.938;2023-10-09T05:20:34;23.27;;;6.82;;
21754;SDS011;11039;50.028;19.938;2023-10-09T05:23:23;23.92;;;6.07;;
21754;SDS011;11039;50.028;19.938;2023-10-09T05:25:50;19.40;;;6.05;;
21754;SDS011;11039;50.028;19.938;2023-10-09T05:28:21;21.75;;;5.97;;
21754;SDS011;11039;50.028;19.938;2023-10-09T05:30:55;12.77;;;5.72;;
21754;SDS011;11039;50.028;19.938;2023-10-09T05:33:42;20.20;;;6.13;;
21754;SDS011;11039;50.028;19.938;2023-10-09T05:36:10;21.75;;;6.60;;
21754;SDS011;11039;50.028;19.938;2023-10-09T05:38:56;13.85;;;5.65;;
21754;SDS011;11039;50.028;19.938;2023-10-09T05:41:44;16.88;;;5.95;;
21754;SDS011;11039;50.028;19.938;2023-10-09T05:44:16;14.23;;;5.93;;
21754;SDS011;11039;50.028;19.938;2023-10-09T05:47:01;13.07;;;5.45;;
21754;SDS011;11039;50.028;19.938;2023-10-09T05:49:45;14.55;;;6.00;;
21754;SDS011;11039;50.028;19.938;2023-10-09T05:52:12;16.63;;;5.28;;
21754;SDS011;11039;50.028;19.938;2023-10-09T05:55:05;15.07;;;5.15;;
21754;SDS011;11039;50.028;19.938;2023-10-09T05:57:34;12.65;;;5.45;;
21754;SDS011;11039;50.028;19.938;2023-10-09T06:00:19;14.13;;;5.18;;
21754;SDS011;11039;50.028;19.938;2023-10-09T06:03:04;13.32;;;5.38;;
21754;SDS011;11039;50.028;19.938;2023-10-09T06:05:45;11.00;;;4.93;;
21754;SDS011;11039;50.028;19.938;2023-10-09T06:08:21;11.32;;;5.18;;
21754;SDS011;11039;50.028;19.938;2023-10-09T06:11:08;12.07;;;4.85;;
21754;SDS011;11039;50.028;19.938;2023-10-09T06:13:53;9.73;;;4.40;;
21754;SDS011;11039;50.028;19.938;2023-10-09T06:16:29;7.82;;;4.38;;
21754;SDS011;11039;50.028;19.938;2023-10-09T06:19:09;10.85;;;4.80;;
21754;SDS011;11039;50.028;19.938;2023-10-09T06:21:51;9.02;;;4.55;;
21754;SDS011;11039;50.028;19.938;2023-10-09T06:24:21;12.30;;;4.75;;
21754;SDS011;11039;50.028;19.938;2023-10-09T06:27:08;9.98;;;4.75;;
21754;SDS011;11039;50.028;19.938;2023-10-09T06:29:41;10.48;;;4.45;;
21754;SDS011;11039;50.028;19.938;2023-10-09T06:32:13;12.48;;;4.53;;
21754;SDS011;11039;50.028;19.938;2023-10-09T06:34:58;7.90;;;4.20;;
21754;SDS011;11039;50.028;19.938;2023-10-09T06:40:30;11.45;;;4.00;;
21754;SDS011;11039;50.028;19.938;2023-10-09T06:43:15;8.05;;;3.85;;
21754;SDS011;11039;50.028;19.938;2023-10-09T06:45:56;12.25;;;4.20;;
21754;SDS011;11039;50.028;19.938;2023-10-09T06:48:23;8.15;;;4.30;;
21754;SDS011;11039;50.028;19.938;2023-10-09T06:51:02;6.78;;;4.30;;
21754;SDS011;11039;50.028;19.938;2023-10-09T06:53:33;10.07;;;3.88;;
21754;SDS011;11039;50.028;19.938;2023-10-09T06:56:17;9.57;;;4.50;;
21754;SDS011;11039;50.028;19.938;2023-10-09T06:59:09;7.10;;;3.42;;
21754;SDS011;11039;50.028;19.938;2023-10-09T07:01:49;9.82;;;3.83;;
21754;SDS011;11039;50.028;19.938;2023-10-09T07:04:35;7.10;;;3.60;;
21754;SDS011;11039;50.028;19.938;2023-10-09T07:07:01;6.68;;;3.88;;
21754;SDS011;11039;50.028;19.938;2023-10-09T07:09:32;8.13;;;3.58;;
21754;SDS011;11039;50.028;19.938;2023-10-09T07:12:08;7.20;;;3.65;;
21754;SDS011;11039;50.028;19.938;2023-10-09T07:14:51;6.60;;;3.70;;
21754;SDS011;11039;50.028;19.938;2023-10-09T07:17:26;7.30;;;3.88;;
21754;SDS011;11039;50.028;19.938;2023-10-09T07:20:13;6.60;;;3.58;;
21754;SDS011;11039;50.028;19.938;2023-10-09T07:22:40;7.70;;;3.55;;
21754;SDS011;11039;50.028;19.938;2023-10-09T07:25:26;5.57;;;3.53;;
21754;SDS011;11039;50.028;19.938;2023-10-09T07:27:54;10.68;;;2.97;;
21754;SDS011;11039;50.028;19.938;2023-10-09T07:30:21;6.72;;;3.20;;
21754;SDS011;11039;50.028;19.938;2023-10-09T07:32:57;6.25;;;3.47;;
21754;SDS011;11039;50.028;19.938;2023-10-09T07:35:33;5.88;;;3.45;;
21754;SDS011;11039;50.028;19.938;2023-10-09T07:40:39;7.65;;;3.35;;
21754;SDS011;11039;50.028;19.938;2023-10-09T07:43:25;5.05;;;3.28;;
21754;SDS011;11039;50.028;19.938;2023-10-09T07:45:54;5.05;;;2.92;;
21754;SDS011;11039;50.028;19.938;2023-10-09T07:48:40;5.47;;;3.20;;
21754;SDS011;11039;50.028;19.938;2023-10-09T07:51:17;6.50;;;3.30;;
21754;SDS011;11039;50.028;19.938;2023-10-09T07:53:48;6.30;;;3.10;;
21754;SDS011;11039;50.028;19.938;2023-10-09T07:56:22;5.43;;;3.22;;
21754;SDS011;11039;50.028;19.938;2023-10-09T07:58:48;4.78;;;3.00;;
21754;SDS011;11039;50.028;19.938;2023-10-09T08:01:15;4.20;;;2.92;;
21754;SDS011;11039;50.028;19.938;2023-10-09T08:03:47;5.07;;;2.80;;
21754;SDS011;11039;50.028;19.938;2023-10-09T08:06:22;5.07;;;3.22;;
21754;SDS011;11039;50.028;19.938;2023-10-09T08:09:03;4.93;;;2.95;;
21754;SDS011;11039;50.028;19.938;2023-10-09T08:11:39;6.55;;;2.95;;
21754;SDS011;11039;50.028;19.938;2023-10-09T08:14:07;5.80;;;3.22;;
21754;SDS011;11039;50.028;19.938;2023-10-09T08:16:53;6.47;;;3.38;;
21754;SDS011;11039;50.028;19.938;2023-10-09T08:19:38;4.45;;;2.67;;
21754;SDS011;11039;50.028;19.938;2023-10-09T08:22:23;4.82;;;2.70;;
21754;SDS011;11039;50.028;19.938;2023-10-09T08:24:50;6.07;;;2.78;;
21754;SDS011;11039;50.028;19.938;2023-10-09T08:27:25;3.60;;;2.80;;
21754;SDS011;11039;50.028;19.938;2023-10-09T08:29:55;5.07;;;2.78;;
21754;SDS011;11039;50.028;19.938;2023-10-09T08:32:40;3.40;;;2.47;;
21754;SDS011;11039;50.028;19.938;2023-10-09T08:35:08;5.28;;;2.50;;
21754;SDS011;11039;50.028;19.938;2023-10-09T08:37:53;6.18;;;2.90;;
21754;SDS011;11039;50.028;19.938;2023-10-09T08:40:27;3.97;;;2.30;;
21754;SDS011;11039;50.028;19.938;2023-10-09T08:42:56;4.00;;;2.60;;
21754;SDS011;11039;50.028;19.938;2023-10-09T08:45:24;3.50;;;2.47;;
21754;SDS011;11039;50.028;19.938;2023-10-09T08:47:55;4.07;;;2.65;;
21754;SDS011;11039;50.028;19.938;2023-10-09T08:50:22;3.72;;;2.42;;
21754;SDS011;11039;50.028;19.938;2023-10-09T08:52:53;4.30;;;2.75;;
21754;SDS011;11039;50.028;19.938;2023-10-09T08:55:20;4.20;;;2.47;;
21754;SDS011;11039;50.028;19.938;2023-10-09T08:57:46;4.38;;;2.63;;
21754;SDS011;11039;50.028;19.938;2023-10-09T09:00:18;3.03;;;2.15;;
21754;SDS011;11039;50.028;19.938;2023-10-09T09:02:52;4.70;;;2.33;;
21754;SDS011;11039;50.028;19.938;2023-10-09T09:05:18;2.80;;;2.35;;
21754;SDS011;11039;50.028;19.938;2023-10-09T09:07:45;4.15;;;2.60;;
21754;SDS011;11039;50.028;19.938;2023-10-09T09:10:13;2.88;;;2.08;;
21754;SDS011;11039;50.028;19.938;2023-10-09T09:12:49;2.45;;;2.13;;
21754;SDS011;11039;50.028;19.938;2023-10-09T09:15:26;2.85;;;2.42;;
21754;SDS011;11039;50.028;19.938;2023-10-09T09:18:02;5.13;;;2.53;;
21754;SDS011;11039;50.028;19.938;2023-10-09T09:20:31;3.60;;;1.98;;
21754;SDS011;11039;50.028;19.938;2023-10-09T09:23:02;2.72;;;2.15;;
21754;SDS011;11039;50.028;19.938;2023-10-09T09:25:40;4.90;;;2.22;;
21754;SDS011;11039;50.028;19.938;2023-10-09T09:28:26;2.33;;;1.95;;
21754;SDS011;11039;50.028;19.938;2023-10-09T09:31:07;3.15;;;2.17;;
21754;SDS011;11039;50.028;19.938;2023-10-09T09:33:40;2.60;;;2.13;;
21754;SDS011;11039;50.028;19.938;2023-10-09T09:36:07;3.47;;;1.98;;
21754;SDS011;11039;50.028;19.938;2023-10-09T09:38:36;3.38;;;2.15;;
21754;SDS011;11039;50.028;19.938;2023-10-09T09:41:15;2.33;;;1.70;;
21754;SDS011;11039;50.028;19.938;2023-10-09T09:43:54;4.03;;;2.03;;
21754;SDS011;11039;50.028;19.938;2023-10-09T09:46:26;2.53;;;1.80;;
21754;SDS011;11039;50.028;19.938;2023-10-09T09:49:03;3.10;;;2.00;;
21754;SDS011;11039;50.028;19.938;2023-10-09T09:51:31;3.88;;;1.90;;
21754;SDS011;11039;50.028;19.938;2023-10-09T09:53:57;2.42;;;1.73;;
21754;SDS011;11039;50.028;19.938;2023-10-09T09:56:24;2.88;;;1.98;;
21754;SDS011;11039;50.028;19.938;2023-10-09T09:58:51;3.63;;;1.95;;
21754;SDS011;11039;50.028;19.938;2023-10-09T10:01:22;1.98;;;1.77;;
21754;SDS011;11039;50.028;19.938;2023-10-09T10:03:56;1.95;;;1.60;;
21754;SDS011;11039;50.028;19.938;2023-10-09T10:06:25;2.88;;;1.90;;
21754;SDS011;11039;50.028;19.938;2023-10-09T10:08:52;2.58;;;1.70;;
21754;SDS011;11039;50.028;19.938;2023-10-09T10:14:05;2.67;;;1.70;;
21754;SDS011;11039;50.028;19.938;2023-10-09T10:16:59;3.10;;;1.90;;
21754;SDS011;11039;50.028;19.938;2023-10-09T10:19:22;2.42;;;1.83;;
21754;SDS011;11039;50.028;19.938;2023-10-09T10:21:48;3.08;;;1.70;;
21754;SDS011;11039;50.028;19.938;2023-10-09T10:30:21;2.67;;;1.70;;
21754;SDS011;11039;50.028;19.938;2023-10-09T10:32:57;1.70;;;1.60;;
21754;SDS011;11039;50.028;19.938;2023-10-09T10:35:23;3.17;;;1.75;;
21754;SDS011;11039;50.028;19.938;2023-10-09T10:40:52;3.17;;;1.60;;
21754;SDS011;11039;50.028;19.938;2023-10-09T10:43:25;2.55;;;1.65;;
21754;SDS011;11039;50.028;19.938;2023-10-09T10:46:05;2.20;;;1.73;;
21754;SDS011;11039;50.028;19.938;2023-10-09T10:48:43;2.65;;;1.52;;
21754;SDS011;11039;50.028;19.938;2023-10-09T10:51:12;7.40;;;1.70;;
21754;SDS011;11039;50.028;19.938;2023-10-09T10:53:50;2.30;;;1.80;;
21754;SDS011;11039;50.028;19.938;2023-10-09T10:56:18;3.15;;;1.60;;
21754;SDS011;11039;50.028;19.938;2023-10-09T10:58:53;2.63;;;1.67;;
21754;SDS011;11039;50.028;19.938;2023-10-09T11:01:32;3.13;;;1.85;;
21754;SDS011;11039;50.028;19.938;2023-10-09T11:04:17;2.17;;;1.80;;
21754;SDS011;11039;50.028;19.938;2023-10-09T11:06:59;2.42;;;1.63;;
21754;SDS011;11039;50.028;19.938;2023-10-09T11:09:53;2.00;;;1.30;;
21754;SDS011;11039;50.028;19.938;2023-10-09T11:12:30;2.47;;;1.55;;
21754;SDS011;11039;50.028;19.938;2023-10-09T11:15:35;2.15;;;1.58;;
21754;SDS011;11039;50.028;19.938;2023-10-09T11:18:12;2.70;;;1.88;;
21754;SDS011;11039;50.028;19.938;2023-10-09T11:20:44;1.60;;;1.40;;
21754;SDS011;11039;50.028;19.938;2023-10-09T11:23:22;2.42;;;1.38;;
21754;SDS011;11039;50.028;19.938;2023-10-09T11:26:01;2.65;;;1.60;;
21754;SDS011;11039;50.028;19.938;2023-10-09T11:32:04;1.83;;;1.27;;
21754;SDS011;11039;50.028;19.938;2023-10-09T11:34:32;1.85;;;1.50;;
21754;SDS011;11039;50.028;19.938;2023-10-09T11:37:21;2.30;;;1.60;;
21754;SDS011;11039;50.028;19.938;2023-10-09T11:39:55;2.60;;;1.42;;
21754;SDS011;11039;50.028;19.938;2023-10-09T11:42:22;2.53;;;1.63;;
21754;SDS011;11039;50.028;19.938;2023-10-09T11:45:21;2.50;;;1.67;;
21754;SDS011;11039;50.028;19.938;2023-10-09T11:47:53;2.95;;;1.90;;
21754;SDS011;11039;50.028;19.938;2023-10-09T11:50:44;1.67;;;1.45;;
21754;SDS011;11039;50.028;19.938;2023-10-09T11:53:40;2.10;;;1.50;;
21754;SDS011;11039;50.028;19.938;2023-10-09T11:56:08;3.45;;;1.67;;
21754;SDS011;11039;50.028;19.938;2023-10-09T11:58:39;2.63;;;1.63;;
21754;SDS011;11039;50.028;19.938;2023-10-09T12:01:14;1.75;;;1.30;;
21754;SDS011;11039;50.028;19.938;2023-10-09T12:03:45;2.33;;;1.40;;
21754;SDS011;11039;50.028;19.938;2023-10-09T12:06:15;2.60;;;1.45;;
21754;SDS011;11039;50.028;19.938;2023-10-09T12:08:44;1.95;;;1.20;;
21754;SDS011;11039;50.028;19.938;2023-10-09T12:11:14;2.08;;;1.52;;
21754;SDS011;11039;50.028;19.938;2023-10-09T12:13:47;2.92;;;1.45;;
21754;SDS011;11039;50.028;19.938;2023-10-09T12:16:14;1.98;;;1.58;;
21754;SDS011;11039;50.028;19.938;2023-10-09T12:18:40;2.13;;;1.50;;
21754;SDS011;11039;50.028;19.938;2023-10-09T12:21:07;1.90;;;1.50;;
21754;SDS011;11039;50.028;19.938;2023-10-09T12:23:40;1.70;;;1.40;;
21754;SDS011;11039;50.028;19.938;2023-10-09T12:26:09;1.75;;;1.30;;
21754;SDS011;11039;50.028;19.938;2023-10-09T12:28:39;3.33;;;1.50;;
21754;SDS011;11039;50.028;19.938;2023-10-09T12:31:05;3.17;;;1.58;;
21754;SDS011;11039;50.028;19.938;2023-10-09T12:33:31;2.17;;;1.50;;
21754;SDS011;11039;50.028;19.938;2023-10-09T12:35:57;2.95;;;1.35;;
21754;SDS011;11039;50.028;19.938;2023-10-09T12:38:27;2.83;;;1.50;;
21754;SDS011;11039;50.028;19.938;2023-10-09T12:43:33;1.95;;;1.65;;
21754;SDS011;11039;50.028;19.938;2023-10-09T12:46:06;1.55;;;1.20;;
21754;SDS011;11039;50.028;19.938;2023-10-09T12:48:32;1.92;;;1.40;;
21754;SDS011;11039;50.028;19.938;2023-10-09T12:50:58;1.50;;;1.35;;
21754;SDS011;11039;50.028;19.938;2023-10-09T12:53:31;1.80;;;1.33;;
21754;SDS011;11039;50.028;19.938;2023-10-09T12:55:57;1.95;;;1.45;;
21754;SDS011;11039;50.028;19.938;2023-10-09T12:58:23;2.15;;;1.42;;
21754;SDS011;11039;50.028;19.938;2023-10-09T13:00:52;1.45;;;1.35;;
21754;SDS011;11039;50.028;19.938;2023-10-09T13:03:18;1.90;;;1.45;;
21754;SDS011;11039;50.028;19.938;2023-10-09T13:05:49;3.00;;;1.40;;
21754;SDS011;11039;50.028;19.938;2023-10-09T13:08:22;1.77;;;1.42;;
21754;SDS011;11039;50.028;19.938;2023-10-09T13:10:49;1.67;;;1.52;;
21754;SDS011;11039;50.028;19.938;2023-10-09T13:16:11;4.25;;;1.52;;
21754;SDS011;11039;50.028;19.938;2023-10-09T13:18:40;1.55;;;1.42;;
21754;SDS011;11039;50.028;19.938;2023-10-09T13:21:07;2.00;;;1.30;;
21754;SDS011;11039;50.028;19.938;2023-10-09T13:23:34;1.98;;;1.40;;
21754;SDS011;11039;50.028;19.938;2023-10-09T13:26:07;1.98;;;1.42;;
21754;SDS011;11039;50.028;19.938;2023-10-09T13:28:45;1.50;;;1.00;;
21754;SDS011;11039;50.028;19.938;2023-10-09T13:31:15;2.25;;;1.67;;
21754;SDS011;11039;50.028;19.938;2023-10-09T13:33:42;1.80;;;1.15;;
21754;SDS011;11039;50.028;19.938;2023-10-09T13:36:09;1.40;;;1.17;;
21754;SDS011;11039;50.028;19.938;2023-10-09T13:38:42;2.05;;;1.40;;
21754;SDS011;11039;50.028;19.938;2023-10-09T13:41:11;1.77;;;1.30;;
21754;SDS011;11039;50.028;19.938;2023-10-09T13:43:42;1.65;;;1.50;;
21754;SDS011;11039;50.028;19.938;2023-10-09T13:48:26;1.40;;;1.30;;
21754;SDS011;11039;50.028;19.938;2023-10-09T13:50:57;1.63;;;1.40;;
21754;SDS011;11039;50.028;19.938;2023-10-09T13:53:24;1.60;;;1.30;;
21754;SDS011;11039;50.028;19.938;2023-10-09T13:55:52;1.35;;;1.25;;
21754;SDS011;11039;50.028;19.938;2023-10-09T13:58:20;2.03;;;1.65;;
21754;SDS011;11039;50.028;19.938;2023-10-09T14:00:46;2.97;;;1.80;;
21754;SDS011;11039;50.028;19.938;2023-10-09T14:03:14;3.75;;;2.42;;
21754;SDS011;11039;50.028;19.938;2023-10-09T14:05:44;2.97;;;2.20;;
21754;SDS011;11039;50.028;19.938;2023-10-09T14:08:22;4.88;;;2.20;;
21754;SDS011;11039;50.028;19.938;2023-10-09T14:10:49;4.70;;;2.47;;
21754;SDS011;11039;50.028;19.938;2023-10-09T14:13:15;3.70;;;2.53;;
21754;SDS011;11039;50.028;19.938;2023-10-09T14:15:50;2.78;;;2.38;;
21754;SDS011;11039;50.028;19.938;2023-10-09T14:18:16;4.13;;;2.45;;
21754;SDS011;11039;50.028;19.938;2023-10-09T14:20:42;2.90;;;2.22;;
21754;SDS011;11039;50.028;19.938;2023-10-09T14:23:09;3.58;;;2.65;;
21754;SDS011;11039;50.028;19.938;2023-10-09T14:25:37;3.17;;;2.60;;
21754;SDS011;11039;50.028;19.938;2023-10-09T14:28:06;3.35;;;2.63;;
21754;SDS011;11039;50.028;19.938;2023-10-09T14:30:36;3.40;;;2.38;;
21754;SDS011;11039;50.028;19.938;2023-10-09T14:33:09;2.78;;;2.40;;
21754;SDS011;11039;50.028;19.938;2023-10-09T14:37:58;2.55;;;2.35;;
21754;SDS011;11039;50.028;19.938;2023-10-09T14:40:27;4.85;;;2.83;;
21754;SDS011;11039;50.028;19.938;2023-10-09T14:42:57;2.45;;;2.17;;
21754;SDS011;11039;50.028;19.938;2023-10-09T14:45:23;4.28;;;2.30;;
21754;SDS011;11039;50.028;19.938;2023-10-09T14:47:51;4.15;;;2.47;;
21754;SDS011;11039;50.028;19.938;2023-10-09T14:50:18;4.78;;;2.10;;
21754;SDS011;11039;50.028;19.938;2023-10-09T14:52:47;3.05;;;2.60;;
21754;SDS011;11039;50.028;19.938;2023-10-09T14:55:13;2.50;;;2.15;;
21754;SDS011;11039;50.028;19.938;2023-10-09T14:57:45;3.17;;;2.15;;
21754;SDS011;11039;50.028;19.938;2023-10-09T15:00:12;2.33;;;1.75;;
21754;SDS011;11039;50.028;19.938;2023-10-09T15:02:39;2.22;;;1.70;;
21754;SDS011;11039;50.028;19.938;2023-10-09T15:05:05;2.22;;;1.88;;
21754;SDS011;11039;50.028;19.938;2023-10-09T15:07:36;3.33;;;1.55;;
21754;SDS011;11039;50.028;19.938;2023-10-09T15:10:06;2.03;;;1.83;;
21754;SDS011;11039;50.028;19.938;2023-10-09T15:12:34;1.77;;;1.40;;
21754;SDS011;11039;50.028;19.938;2023-10-09T15:15:09;3.30;;;1.85;;
21754;SDS011;11039;50.028;19.938;2023-10-09T15:17:39;1.65;;;1.48;;
21754;SDS011;11039;50.028;19.938;2023-10-09T15:20:09;3.60;;;1.70;;
21754;SDS011;11039;50.028;19.938;2023-10-09T15:22:38;1.63;;;1.45;;
21754;SDS011;11039;50.028;19.938;2023-10-09T15:25:04;3.03;;;1.90;;
21754;SDS011;11039;50.028;19.938;2023-10-09T15:27:31;3.72;;;1.70;;
21754;SDS011;11039;50.028;19.938;2023-10-09T15:29:57;5.15;;;2.25;;
21754;SDS011;11039;50.028;19.938;2023-10-09T15:32:23;3.65;;;2.05;;
21754;SDS011;11039;50.028;19.938;2023-10-09T15:34:54;6.93;;;2.60;;
21754;SDS011;11039;50.028;19.938;2023-10-09T15:37:21;3.50;;;2.70;;